createdAt,value
2024-02-01T00:01:02.047Z,101647.84
2024-02-01T00:03:29.174Z,101650.50
2024-02-01T00:05:55.960Z,101651.34
2024-02-01T00:08:22.791Z,101654.75
2024-02-01T00:10:49.494Z,101652.22
2024-02-01T00:13:16.415Z,101659.97
2024-02-01T00:15:43.073Z,101662.66
2024-02-01T00:18:09.947Z,101667.81
2024-02-01T00:20:37.118Z,101655.69
2024-02-01T00:23:04.004Z,101656.50
2024-02-01T00:25:30.662Z,101654.78
2024-02-01T00:27:57.681Z,101652.44
2024-02-01T00:30:25.711Z,101660.34
2024-02-01T00:32:52.511Z,101656.97
2024-02-01T00:35:19.433Z,101657.72
2024-02-01T00:37:46.114Z,101657.66
2024-02-01T00:40:13.072Z,101659.44
2024-02-01T00:42:39.829Z,101655.00
2024-02-01T00:45:08.151Z,101658.47
2024-02-01T00:47:34.857Z,101665.53
2024-02-01T00:50:01.643Z,101657.84
2024-02-01T00:52:28.280Z,101651.78
2024-02-01T00:54:54.797Z,101657.97
2024-02-01T00:57:21.472Z,101658.00
2024-02-01T00:59:48.349Z,101659.72
2024-02-01T01:02:15.727Z,101649.28
2024-02-01T01:04:42.524Z,101636.28
2024-02-01T01:07:09.188Z,101622.47
2024-02-01T01:09:35.967Z,101612.03
2024-02-01T01:12:02.825Z,101597.25
2024-02-01T01:14:29.691Z,101598.09
2024-02-01T01:16:56.391Z,101597.19
2024-02-01T01:19:23.018Z,101585.81
2024-02-01T01:21:49.665Z,101571.19
2024-02-01T01:24:16.466Z,101568.59
2024-02-01T01:26:43.105Z,101573.75
2024-02-01T01:29:09.973Z,101581.66
2024-02-01T01:31:36.534Z,101576.56
2024-02-01T01:34:03.462Z,101574.75
2024-02-01T01:36:30.110Z,101585.25
2024-02-01T01:38:57.279Z,101588.63
2024-02-01T01:41:23.927Z,101579.94
2024-02-01T01:43:50.575Z,101576.47
2024-02-01T01:46:17.105Z,101567.78
2024-02-01T01:48:43.765Z,101566.06
2024-02-01T01:51:11.085Z,101573.81
2024-02-01T01:53:39.589Z,101563.47
2024-02-01T01:56:07.064Z,101561.84
2024-02-01T01:58:36.258Z,101564.31
2024-02-01T02:01:03.953Z,101560.13
2024-02-01T02:03:34.306Z,101569.53
2024-02-01T02:06:00.962Z,101566.06
2024-02-01T02:08:27.524Z,101560.06
2024-02-01T02:10:54.389Z,101562.72
2024-02-01T02:13:21.340Z,101561.00
2024-02-01T02:15:48.441Z,101560.16
2024-02-01T02:18:15.618Z,101562.78
2024-02-01T02:20:45.622Z,101563.56
2024-02-01T02:23:12.941Z,101555.63
2024-02-01T02:25:40.493Z,101556.69
2024-02-01T02:28:07.141Z,101545.38
2024-02-01T02:30:34.694Z,101551.47
2024-02-01T02:33:03.150Z,101555.94
2024-02-01T02:35:29.988Z,101560.28
2024-02-01T02:38:18.607Z,101562.81
2024-02-01T02:41:05.323Z,101556.00
2024-02-01T02:43:52.070Z,101561.94
2024-02-01T02:46:39.840Z,101564.53
2024-02-01T02:49:26.383Z,101560.19
2024-02-01T02:52:12.956Z,101574.09
2024-02-01T02:54:39.562Z,101575.81
2024-02-01T02:57:07.527Z,101561.03
2024-02-01T02:59:38.124Z,101568.84
2024-02-01T03:02:08.253Z,101571.44
2024-02-01T03:04:35.372Z,101572.44
2024-02-01T03:07:01.988Z,101572.44
2024-02-01T03:09:30.957Z,101581.94
2024-02-01T03:11:58.386Z,101574.97
2024-02-01T03:14:25.178Z,101574.94
2024-02-01T03:16:51.732Z,101577.63
2024-02-01T03:19:18.713Z,101564.63
2024-02-01T03:21:45.543Z,101567.25
2024-02-01T03:24:12.414Z,101567.28
2024-02-01T03:26:39.218Z,101554.31
2024-02-01T03:29:06.873Z,101549.97
2024-02-01T03:31:37.072Z,101556.75
2024-02-01T03:34:11.807Z,101558.69
2024-02-01T03:36:40.004Z,101555.34
2024-02-01T03:39:23.459Z,101550.09
2024-02-01T03:41:52.157Z,101548.28
2024-02-01T03:44:19.707Z,101549.06
2024-02-01T03:46:46.399Z,101538.81
2024-02-01T03:49:13.166Z,101535.44
2024-02-01T03:51:39.827Z,101538.88
2024-02-01T03:54:16.868Z,101533.75
2024-02-01T03:56:43.741Z,101535.50
2024-02-01T03:59:11.218Z,101528.56
2024-02-01T04:01:41.401Z,101521.66
2024-02-01T04:04:08.588Z,101525.13
2024-02-01T04:06:36.508Z,101518.31
2024-02-01T04:09:05.000Z,101521.78
2024-02-01T04:11:31.807Z,101507.91
2024-02-01T04:13:58.442Z,101518.38
2024-02-01T04:16:25.182Z,101512.31
2024-02-01T04:18:53.310Z,101510.63
2024-02-01T04:21:20.590Z,101505.47
2024-02-01T04:23:47.245Z,101497.66
2024-02-01T04:26:16.791Z,101502.84
2024-02-01T04:28:47.054Z,101504.72
2024-02-01T04:31:13.687Z,101493.41
2024-02-01T04:33:43.236Z,101500.25
2024-02-01T04:36:10.606Z,101499.44
2024-02-01T04:38:38.394Z,101501.22
2024-02-01T04:41:12.285Z,101499.59
2024-02-01T04:43:41.791Z,101492.66
2024-02-01T04:46:09.126Z,101502.94
2024-02-01T04:48:37.980Z,101507.28
2024-02-01T04:51:06.284Z,101499.59
2024-02-01T04:53:33.058Z,101496.13
2024-02-01T04:56:01.733Z,101491.75
2024-02-01T04:58:28.431Z,101480.53
2024-02-01T05:00:55.394Z,101484.84
2024-02-01T05:03:26.009Z,101474.47
2024-02-01T05:05:55.200Z,101478.81
2024-02-01T05:08:21.984Z,101489.19
2024-02-01T05:10:48.427Z,101490.06
2024-02-01T05:13:15.364Z,101492.69
2024-02-01T05:15:48.278Z,101490.09
2024-02-01T05:18:15.631Z,101495.31
2024-02-01T05:20:44.411Z,101481.59
2024-02-01T05:23:11.627Z,101491.03
2024-02-01T05:25:41.926Z,101489.28
2024-02-01T05:28:11.013Z,101482.41
2024-02-01T05:30:41.985Z,101490.94
2024-02-01T05:33:09.082Z,101487.50
2024-02-01T05:35:35.999Z,101488.34
2024-02-01T05:38:04.332Z,101486.66
2024-02-01T05:40:31.463Z,101485.81
2024-02-01T05:42:58.257Z,101485.78
2024-02-01T05:45:29.213Z,101486.66
2024-02-01T05:47:56.645Z,101478.03
2024-02-01T05:50:23.243Z,101466.78
2024-02-01T05:52:50.064Z,101467.63
2024-02-01T05:55:16.702Z,101457.22
2024-02-01T05:57:44.189Z,101465.00
2024-02-01T06:00:12.076Z,101460.66
2024-02-01T06:02:38.938Z,101461.53
2024-02-01T06:05:06.516Z,101454.63
2024-02-01T06:07:33.987Z,101452.00
2024-02-01T06:10:01.089Z,101448.50
2024-02-01T06:12:33.296Z,101445.09
2024-02-01T06:15:03.105Z,101450.22
2024-02-01T06:17:30.230Z,101440.78
2024-02-01T06:19:57.191Z,101440.75
2024-02-01T06:22:26.314Z,101444.25
2024-02-01T06:24:53.451Z,101439.00
2024-02-01T06:27:20.670Z,101440.75
2024-02-01T06:29:47.433Z,101439.94
2024-02-01T06:32:21.372Z,101433.00
2024-02-01T06:34:55.713Z,101445.13
2024-02-01T06:37:23.318Z,101443.41
2024-02-01T06:40:10.640Z,101440.78
2024-02-01T06:42:56.796Z,101449.41
2024-02-01T06:45:30.301Z,101454.66
2024-02-01T06:48:06.641Z,101452.03
2024-02-01T06:50:48.162Z,101457.16
2024-02-01T06:53:21.524Z,101449.31
2024-02-01T06:56:07.906Z,101450.19
2024-02-01T06:58:49.170Z,101449.34
2024-02-01T07:01:26.068Z,101451.91
2024-02-01T07:04:08.777Z,101453.59
2024-02-01T07:06:37.677Z,101458.81
2024-02-01T07:09:24.433Z,101446.72
2024-02-01T07:12:01.661Z,101450.16
2024-02-01T07:14:37.385Z,101461.41
2024-02-01T07:17:27.376Z,101467.44
2024-02-01T07:19:57.405Z,101448.41
2024-02-01T07:22:37.103Z,101462.19
2024-02-01T07:25:11.890Z,101459.63
2024-02-01T07:27:58.048Z,101466.53
2024-02-01T07:30:43.531Z,101467.41
2024-02-01T07:33:29.036Z,101470.03
2024-02-01T07:36:14.478Z,101463.09
2024-02-01T07:39:00.035Z,101469.16
2024-02-01T07:41:45.379Z,101470.88
2024-02-01T07:44:30.950Z,101473.44
2024-02-01T07:47:16.310Z,101481.22
2024-02-01T07:50:01.962Z,101483.84
2024-02-01T07:52:47.429Z,101482.94
2024-02-01T07:55:32.926Z,101491.59
2024-02-01T07:58:01.191Z,101489.84
2024-02-01T08:00:47.192Z,101493.38
2024-02-01T08:03:23.862Z,101497.69
2024-02-01T08:06:10.291Z,101489.88
2024-02-01T08:08:37.130Z,101494.22
2024-02-01T08:11:05.218Z,101491.63
2024-02-01T08:13:33.242Z,101498.53
2024-02-01T08:16:04.383Z,101500.25
2024-02-01T08:18:38.769Z,101508.84
2024-02-01T08:21:06.694Z,101506.25
2024-02-01T08:23:33.530Z,101514.00
2024-02-01T08:26:04.409Z,101517.53
2024-02-01T08:28:34.223Z,101518.31
2024-02-01T08:31:05.226Z,101533.06
2024-02-01T08:33:32.029Z,101522.72
2024-02-01T08:35:59.294Z,101534.84
2024-02-01T08:38:26.188Z,101520.91
2024-02-01T08:40:52.736Z,101529.56
2024-02-01T08:43:19.647Z,101538.28
2024-02-01T08:45:46.955Z,101537.38
2024-02-01T08:48:14.556Z,101539.91
2024-02-01T08:50:54.887Z,101540.72
2024-02-01T08:53:23.345Z,101541.63
2024-02-01T08:55:54.333Z,101545.88
2024-02-01T08:58:22.447Z,101542.44
2024-02-01T09:00:50.661Z,101547.63
2024-02-01T09:03:18.627Z,101558.03
2024-02-01T09:05:48.075Z,101549.34
2024-02-01T09:08:17.790Z,101549.25
2024-02-01T09:10:52.073Z,101553.69
2024-02-01T09:13:20.758Z,101560.56
2024-02-01T09:15:48.127Z,101568.38
2024-02-01T09:18:16.710Z,101558.91
2024-02-01T09:20:43.981Z,101569.22
2024-02-01T09:23:13.076Z,101573.53
2024-02-01T09:25:42.257Z,101577.84
2024-02-01T09:28:13.327Z,101583.03
2024-02-01T09:30:47.681Z,101583.88
2024-02-01T09:33:19.420Z,101589.88
2024-02-01T09:35:47.358Z,101590.03
2024-02-01T09:38:14.404Z,101588.31
2024-02-01T09:40:45.199Z,101590.88
2024-02-01T09:43:23.394Z,101594.28
2024-02-01T09:45:51.606Z,101593.44
2024-02-01T09:48:22.479Z,101595.09
2024-02-01T09:50:54.296Z,101588.06
2024-02-01T09:53:22.749Z,101592.44
2024-02-01T09:55:59.581Z,101583.69
2024-02-01T09:58:30.037Z,101582.75
2024-02-01T10:00:57.009Z,101589.75
2024-02-01T10:03:29.339Z,101595.88
2024-02-01T10:05:57.947Z,101593.16
2024-02-01T10:08:27.800Z,101588.88
2024-02-01T10:10:54.484Z,101589.66
2024-02-01T10:13:32.831Z,101596.59
2024-02-01T10:16:01.497Z,101597.47
2024-02-01T10:18:29.278Z,101594.81
2024-02-01T10:21:00.424Z,101593.88
2024-02-01T10:23:28.475Z,101600.78
2024-02-01T10:25:56.736Z,101605.09
2024-02-01T10:28:27.047Z,101604.22
2024-02-01T10:30:54.233Z,101598.22
2024-02-01T10:33:29.247Z,101597.38
2024-02-01T10:36:00.822Z,101597.38
2024-02-01T10:38:29.086Z,101589.50
2024-02-01T10:41:04.261Z,101596.38
2024-02-01T10:43:35.462Z,101590.28
2024-02-01T10:46:08.108Z,101597.25
2024-02-01T10:48:43.474Z,101592.97
2024-02-01T10:51:13.356Z,101592.88
2024-02-01T10:53:43.327Z,101582.41
2024-02-01T10:56:17.426Z,101578.06
2024-02-01T10:58:53.552Z,101579.81
2024-02-01T11:01:29.462Z,101578.06
2024-02-01T11:04:01.458Z,101588.28
2024-02-01T11:06:30.171Z,101586.56
2024-02-01T11:08:58.906Z,101595.06
2024-02-01T11:11:34.837Z,101592.66
2024-02-01T11:14:13.506Z,101599.63
2024-02-01T11:16:42.062Z,101590.94
2024-02-01T11:19:13.580Z,101592.66
2024-02-01T11:21:51.704Z,101581.34
2024-02-01T11:24:21.480Z,101578.69
2024-02-01T11:26:56.468Z,101584.00
2024-02-01T11:29:25.570Z,101579.69
2024-02-01T11:31:57.723Z,101583.09
2024-02-01T11:34:26.159Z,101581.34
2024-02-01T11:36:55.083Z,101583.94
2024-02-01T11:39:22.393Z,101589.19
2024-02-01T11:41:50.720Z,101596.03
2024-02-01T11:44:20.818Z,101597.75
2024-02-01T11:46:48.449Z,101598.75
2024-02-01T11:49:24.559Z,101600.47
2024-02-01T11:52:17.226Z,101604.69
2024-02-01T11:54:48.050Z,101608.13
2024-02-01T11:57:18.141Z,101606.22
2024-02-01T11:59:45.720Z,101614.00
2024-02-01T12:02:12.860Z,101607.09
2024-02-01T12:04:42.420Z,101611.38
2024-02-01T12:07:15.741Z,101606.00
2024-02-01T12:09:42.774Z,101599.81
2024-02-01T12:12:10.295Z,101598.13
2024-02-01T12:14:40.217Z,101594.47
2024-02-01T12:17:08.011Z,101594.63
2024-02-01T12:19:41.779Z,101601.31
2024-02-01T12:22:09.628Z,101599.91
2024-02-01T12:24:37.370Z,101609.53
2024-02-01T12:27:07.652Z,101605.28
2024-02-01T12:29:34.538Z,101602.88
2024-02-01T12:32:01.976Z,101598.59
2024-02-01T12:34:28.951Z,101615.44
2024-02-01T12:36:56.146Z,101612.09
2024-02-01T12:39:22.864Z,101610.75
2024-02-01T12:41:49.736Z,101621.91
2024-02-01T12:44:17.691Z,101621.09
2024-02-01T12:46:45.417Z,101617.72
2024-02-01T12:49:15.320Z,101619.78
2024-02-01T12:51:48.294Z,101623.34
2024-02-01T12:54:16.871Z,101615.81
2024-02-01T12:56:43.762Z,101619.16
2024-02-01T12:59:11.888Z,101622.81
2024-02-01T13:01:42.242Z,101614.09
2024-02-01T13:04:09.970Z,101612.31
2024-02-01T13:06:37.013Z,101630.72
2024-02-01T13:09:04.210Z,101630.03
2024-02-01T13:11:31.593Z,101632.50
2024-02-01T13:14:00.018Z,101631.81
2024-02-01T13:16:27.998Z,101619.78
2024-02-01T13:19:02.099Z,101634.28
2024-02-01T13:21:29.624Z,101636.34
2024-02-01T13:23:56.253Z,101639.13
2024-02-01T13:26:23.147Z,101647.88
2024-02-01T13:28:50.820Z,101642.69
2024-02-01T13:31:17.448Z,101642.00
2024-02-01T13:33:44.241Z,101649.63
2024-02-01T13:36:11.993Z,101641.53
2024-02-01T13:38:38.891Z,101644.22
2024-02-01T13:41:06.472Z,101657.47
2024-02-01T13:43:35.068Z,101656.81
2024-02-01T13:46:01.802Z,101659.88
2024-02-01T13:48:28.493Z,101653.44
2024-02-01T13:50:55.684Z,101657.22
2024-02-01T13:53:22.286Z,101657.56
2024-02-01T13:55:49.074Z,101660.09
2024-02-01T13:58:15.709Z,101670.44
2024-02-01T14:00:51.344Z,101662.16
2024-02-01T14:03:28.577Z,101666.94
2024-02-01T14:05:55.579Z,101674.66
2024-02-01T14:08:23.221Z,101679.16
2024-02-01T14:10:50.774Z,101689.19
2024-02-01T14:13:17.962Z,101686.78
2024-02-01T14:15:44.500Z,101698.66
2024-02-01T14:18:11.143Z,101687.00
2024-02-01T14:20:37.769Z,101682.69
2024-02-01T14:23:04.716Z,101690.91
2024-02-01T14:25:31.216Z,101688.13
2024-02-01T14:27:57.716Z,101686.94
2024-02-01T14:30:24.317Z,101683.16
2024-02-01T14:32:51.034Z,101688.25
2024-02-01T14:35:21.628Z,101687.94
2024-02-01T14:37:48.640Z,101683.53
2024-02-01T14:40:15.928Z,101679.34
2024-02-01T14:42:43.178Z,101678.56
2024-02-01T14:45:10.743Z,101688.25
2024-02-01T14:47:38.414Z,101693.41
2024-02-01T14:50:06.714Z,101696.31
2024-02-01T14:52:33.494Z,101696.66
2024-02-01T14:55:00.213Z,101707.38
2024-02-01T14:57:27.130Z,101707.22
2024-02-01T14:59:53.738Z,101707.22
2024-02-01T15:02:20.427Z,101709.03
2024-02-01T15:04:47.010Z,101714.41
2024-02-01T15:07:13.838Z,101720.84
2024-02-01T15:09:41.182Z,101710.44
2024-02-01T15:12:15.213Z,101716.59
2024-02-01T15:14:41.844Z,101715.53
2024-02-01T15:17:08.491Z,101724.31
2024-02-01T15:19:35.310Z,101732.56
2024-02-01T15:22:02.384Z,101737.91
2024-02-01T15:24:29.092Z,101738.50
2024-02-01T15:26:57.233Z,101741.56
2024-02-01T15:29:24.684Z,101747.91
2024-02-01T15:31:52.568Z,101758.28
2024-02-01T15:34:19.892Z,101762.03
2024-02-01T15:36:46.638Z,101758.63
2024-02-01T15:39:15.703Z,101753.84
2024-02-01T15:41:43.273Z,101759.00
2024-02-01T15:44:11.168Z,101762.28
2024-02-01T15:46:39.115Z,101759.84
2024-02-01T15:49:13.162Z,101771.63
2024-02-01T15:51:44.399Z,101771.25
2024-02-01T15:54:12.072Z,101784.03
2024-02-01T15:56:38.916Z,101789.34
2024-02-01T15:59:05.620Z,101793.31
2024-02-01T16:01:32.363Z,101797.69
2024-02-01T16:04:01.554Z,101809.50
2024-02-01T16:06:28.546Z,101808.16
2024-02-01T16:08:57.586Z,101808.84
2024-02-01T16:11:26.758Z,101806.69
2024-02-01T16:14:03.723Z,101805.63
2024-02-01T16:16:51.377Z,101811.72
2024-02-01T16:19:34.742Z,101813.41
2024-02-01T16:22:02.759Z,101818.78
2024-02-01T16:24:35.616Z,101830.66
2024-02-01T16:27:03.950Z,101826.28
2024-02-01T16:29:33.372Z,101828.31
2024-02-01T16:32:26.868Z,101820.78
2024-02-01T16:34:54.319Z,101827.06
2024-02-01T16:37:21.418Z,101826.56
2024-02-01T16:39:54.838Z,101834.63
2024-02-01T16:42:41.010Z,101829.97
2024-02-01T16:45:10.646Z,101831.75
2024-02-01T16:47:40.363Z,101831.09
2024-02-01T16:50:13.560Z,101844.41
2024-02-01T16:53:02.215Z,101840.06
2024-02-01T16:55:38.613Z,101842.06
2024-02-01T16:58:07.113Z,101842.88
2024-02-01T17:00:35.673Z,101846.25
2024-02-01T17:03:19.919Z,101847.16
2024-02-01T17:05:48.296Z,101847.13
2024-02-01T17:08:41.421Z,101847.25
2024-02-01T17:11:09.021Z,101856.81
2024-02-01T17:13:35.761Z,101864.63
2024-02-01T17:16:03.666Z,101875.25
2024-02-01T17:18:34.231Z,101877.84
2024-02-01T17:21:05.628Z,101881.31
2024-02-01T17:23:32.331Z,101884.94
2024-02-01T17:26:19.037Z,101887.69
2024-02-01T17:28:46.457Z,101893.00
2024-02-01T17:31:19.662Z,101899.13
2024-02-01T17:33:56.364Z,101896.47
2024-02-01T17:36:24.434Z,101892.19
2024-02-01T17:38:51.898Z,101889.69
2024-02-01T17:41:22.667Z,101901.75
2024-02-01T17:43:49.782Z,101899.13
2024-02-01T17:46:55.827Z,101906.09
2024-02-01T17:49:36.215Z,101904.34
2024-02-01T17:52:03.542Z,101914.84
2024-02-01T17:54:32.759Z,101901.06
2024-02-01T17:57:01.307Z,101901.91
2024-02-01T17:59:54.506Z,101913.22
2024-02-01T18:02:26.316Z,101915.91
2024-02-01T18:04:55.611Z,101917.63
2024-02-01T18:07:23.129Z,101913.22
2024-02-01T18:09:50.145Z,101921.03
2024-02-01T18:12:20.724Z,101925.41
2024-02-01T18:14:48.032Z,101928.81
2024-02-01T18:17:30.126Z,101927.09
2024-02-01T18:19:56.787Z,101922.78
2024-02-01T18:22:23.760Z,101928.00
2024-02-01T18:24:54.711Z,101939.25
2024-02-01T18:27:24.642Z,101935.78
2024-02-01T18:29:56.524Z,101927.13
2024-02-01T18:32:31.641Z,101933.19
2024-02-01T18:35:00.177Z,101940.13
2024-02-01T18:37:28.859Z,101941.84
2024-02-01T18:39:55.491Z,101944.44
2024-02-01T18:42:31.336Z,101950.50
2024-02-01T18:44:59.107Z,101945.31
2024-02-01T18:47:31.593Z,101950.50
2024-02-01T18:50:00.427Z,101945.31
2024-02-01T18:52:27.239Z,101955.69
2024-02-01T18:54:54.686Z,101960.00
2024-02-01T18:57:37.218Z,101956.53
2024-02-01T19:00:10.801Z,101959.16
2024-02-01T19:02:54.585Z,101950.47
2024-02-01T19:05:21.755Z,101952.19
2024-02-01T19:07:55.653Z,101950.44
2024-02-01T19:10:40.923Z,101956.47
2024-02-01T19:13:34.277Z,101951.28
2024-02-01T19:16:01.441Z,101945.22
2024-02-01T19:18:28.166Z,101947.78
2024-02-01T19:20:55.951Z,101950.38
2024-02-01T19:23:28.617Z,101960.72
2024-02-01T19:25:55.563Z,101960.72
2024-02-01T19:28:47.844Z,101961.59
2024-02-01T19:31:17.191Z,101964.19
2024-02-01T19:33:46.586Z,101963.28
2024-02-01T19:36:25.363Z,101965.78
2024-02-01T19:38:52.725Z,101970.97
2024-02-01T19:41:19.676Z,101975.28
2024-02-01T19:43:46.509Z,101972.72
2024-02-01T19:46:13.141Z,101978.75
2024-02-01T19:48:40.088Z,101979.53
2024-02-01T19:51:06.780Z,101985.59
2024-02-01T19:53:33.490Z,101982.97
2024-02-01T19:56:00.245Z,101981.16
2024-02-01T19:58:27.183Z,101984.53
2024-02-01T20:00:53.952Z,101994.97
2024-02-01T20:03:20.882Z,101994.06
2024-02-01T20:05:47.845Z,101999.19
2024-02-01T20:08:15.712Z,101996.56
2024-02-01T20:10:43.475Z,101995.72
2024-02-01T20:13:10.813Z,101998.25
2024-02-01T20:15:38.748Z,102008.56
2024-02-01T20:18:05.994Z,102007.72
2024-02-01T20:20:33.059Z,102009.34
2024-02-01T20:22:59.801Z,102006.81
2024-02-01T20:25:31.085Z,102023.19
2024-02-01T20:27:59.502Z,102030.94
2024-02-01T20:30:27.726Z,102031.75
2024-02-01T20:32:57.800Z,102011.00
2024-02-01T20:35:25.678Z,102013.47
2024-02-01T20:38:15.695Z,102006.56
2024-02-01T20:40:43.691Z,102003.06
2024-02-01T20:43:16.408Z,102003.88
2024-02-01T20:45:54.563Z,102002.09
2024-02-01T20:48:46.750Z,102000.19
2024-02-01T20:51:38.605Z,102011.50
2024-02-01T20:54:06.002Z,102009.75
2024-02-01T20:56:33.427Z,102017.47
2024-02-01T20:59:03.145Z,102022.59
2024-02-01T21:01:39.181Z,102022.50
2024-02-01T21:04:26.762Z,102014.69
2024-02-01T21:06:54.341Z,102016.34
2024-02-01T21:09:42.045Z,102015.34
2024-02-01T21:12:10.589Z,102021.97
2024-02-01T21:14:48.664Z,102026.50
2024-02-01T21:17:23.864Z,102025.63
2024-02-01T21:19:54.567Z,102035.00
2024-02-01T21:22:35.015Z,102028.28
2024-02-01T21:25:02.788Z,102018.63
2024-02-01T21:27:31.536Z,102028.91
2024-02-01T21:29:58.979Z,102023.75
2024-02-01T21:32:25.645Z,102027.97
2024-02-01T21:34:56.020Z,102028.69
2024-02-01T21:37:23.895Z,102030.50
2024-02-01T21:39:54.555Z,102026.94
2024-02-01T21:42:31.421Z,102032.09
2024-02-01T21:44:59.947Z,102050.16
2024-02-01T21:47:26.670Z,102046.88
2024-02-01T21:49:54.413Z,102049.38
2024-02-01T21:52:23.214Z,102057.03
2024-02-01T21:54:50.023Z,102061.41
2024-02-01T21:57:16.928Z,102063.91
2024-02-01T21:59:43.847Z,102062.94
2024-02-01T22:02:10.808Z,102058.69
2024-02-01T22:04:38.456Z,102060.09
2024-02-01T22:07:05.337Z,102056.03
2024-02-01T22:09:32.593Z,102060.41
2024-02-01T22:16:45.260Z,102072.25
2024-02-01T22:19:32.232Z,102073.13
2024-02-01T22:22:18.855Z,102083.38
2024-02-01T22:25:06.498Z,102092.00
2024-02-01T22:27:53.050Z,102095.22
2024-02-01T22:30:39.728Z,102101.34
2024-02-01T22:33:21.897Z,102102.09
2024-02-01T22:35:48.635Z,102095.03
2024-02-01T22:38:15.398Z,102090.53
2024-02-01T22:40:42.636Z,102086.91
2024-02-01T22:43:09.748Z,102093.03
2024-02-01T22:45:36.659Z,102089.44
2024-02-01T22:48:03.718Z,102090.28
2024-02-01T22:50:30.603Z,102086.03
2024-02-01T22:52:57.557Z,102091.69
2024-02-01T22:55:26.329Z,102087.19
2024-02-01T22:57:53.184Z,102089.97
2024-02-01T23:00:24.387Z,102095.09
2024-02-01T23:02:52.000Z,102098.53
2024-02-01T23:05:19.665Z,102092.34
2024-02-01T23:07:47.504Z,102095.69
2024-02-01T23:10:14.714Z,102091.41
2024-02-01T23:12:41.500Z,102091.28
2024-02-01T23:15:08.661Z,102092.28
2024-02-01T23:17:35.401Z,102093.16
2024-02-01T23:20:02.328Z,102089.66
2024-02-01T23:22:29.858Z,102082.81
2024-02-01T23:24:56.674Z,102089.53
2024-02-01T23:27:23.490Z,102085.88
2024-02-01T23:29:50.367Z,102083.38
2024-02-01T23:32:17.477Z,102083.22
2024-02-01T23:34:44.544Z,102084.19
2024-02-01T23:37:11.660Z,102081.50
2024-02-01T23:39:41.781Z,102080.66
2024-02-01T23:42:08.963Z,102072.84
2024-02-01T23:44:35.668Z,102066.91
2024-02-01T23:47:02.442Z,102066.94
2024-02-01T23:49:30.933Z,102056.69
2024-02-01T23:51:57.737Z,102049.91
2024-02-01T23:54:25.254Z,102048.88
2024-02-01T23:56:51.935Z,102044.44
2024-02-01T23:59:18.867Z,102038.44
